createdAt,value
2022-09-12T00:00:25.057Z,14.41
2022-09-12T00:01:25.039Z,14.38
2022-09-12T00:02:25.043Z,14.40
2022-09-12T00:03:24.980Z,14.44
2022-09-12T00:04:24.984Z,14.41
2022-09-12T00:05:24.943Z,14.44
2022-09-12T00:06:24.930Z,14.44
2022-09-12T00:07:24.966Z,14.48
2022-09-12T00:08:24.890Z,14.44
2022-09-12T00:09:24.867Z,14.45
2022-09-12T00:10:24.850Z,14.41
2022-09-12T00:11:24.822Z,14.46
2022-09-12T00:12:24.809Z,14.44
2022-09-12T00:13:24.813Z,14.46
2022-09-12T00:14:24.773Z,14.37
2022-09-12T00:15:24.758Z,14.40
2022-09-12T00:16:24.836Z,14.44
2022-09-12T00:17:24.731Z,14.44
2022-09-12T00:18:24.691Z,14.37
2022-09-12T00:19:24.677Z,14.46
2022-09-12T00:20:24.655Z,14.44
2022-09-12T00:21:24.646Z,14.46
2022-09-12T00:22:24.612Z,14.41
2022-09-12T00:23:24.618Z,14.36
2022-09-12T00:24:24.594Z,14.44
2022-09-12T00:25:24.553Z,14.48
2022-09-12T00:26:24.537Z,14.40
2022-09-12T00:27:24.517Z,14.48
2022-09-12T00:28:24.498Z,14.49
2022-09-12T00:29:24.481Z,14.45
2022-09-12T00:30:24.473Z,14.41
2022-09-12T00:31:24.467Z,14.33
2022-09-12T00:32:24.416Z,14.31
2022-09-12T00:33:24.403Z,14.23
2022-09-12T00:34:24.430Z,14.28
2022-09-12T00:35:24.382Z,14.22
2022-09-12T00:36:24.348Z,14.21
2022-09-12T00:37:24.322Z,14.21
2022-09-12T00:38:24.351Z,14.21
2022-09-12T00:39:24.287Z,14.22
2022-09-12T00:40:24.282Z,14.19
2022-09-12T00:41:24.246Z,14.22
2022-09-12T00:42:24.223Z,14.22
2022-09-12T00:43:24.206Z,14.21
2022-09-12T00:44:24.215Z,14.30
2022-09-12T00:45:24.204Z,14.23
2022-09-12T00:46:24.150Z,14.34
2022-09-12T00:47:24.130Z,14.27
2022-09-12T00:48:24.111Z,14.28
2022-09-12T00:49:24.086Z,14.23
2022-09-12T00:50:24.094Z,14.21
2022-09-12T00:51:24.047Z,14.16
2022-09-12T00:52:24.039Z,14.18
2022-09-12T00:53:24.013Z,14.16
2022-09-12T00:54:23.992Z,14.21
2022-09-12T00:55:23.996Z,14.19
2022-09-12T00:56:23.958Z,14.05
2022-09-12T00:57:23.947Z,14.04
2022-09-12T00:58:23.918Z,14.11
2022-09-12T00:59:23.899Z,14.11
2022-09-12T01:00:23.881Z,14.09
2022-09-12T01:01:23.918Z,14.11
2022-09-12T01:02:23.882Z,14.13
2022-09-12T01:03:23.936Z,14.15
2022-09-12T01:04:23.798Z,14.11
2022-09-12T01:05:23.779Z,14.16
2022-09-12T01:06:23.836Z,14.13
2022-09-12T01:07:23.736Z,14.12
2022-09-12T01:08:23.719Z,14.05
2022-09-12T01:09:23.713Z,14.05
2022-09-12T01:10:23.681Z,14.08
2022-09-12T01:11:23.660Z,14.01
2022-09-12T01:12:23.750Z,14.03
2022-09-12T01:13:23.618Z,14.08
2022-09-12T01:14:23.609Z,13.96
2022-09-12T01:15:23.584Z,14.00
2022-09-12T01:16:23.587Z,13.97
2022-09-12T01:17:23.546Z,14.04
2022-09-12T01:18:23.569Z,14.00
2022-09-12T01:19:23.522Z,14.04
2022-09-12T01:20:23.484Z,14.05
2022-09-12T01:21:23.467Z,14.01
2022-09-12T01:22:23.449Z,14.03
2022-09-12T01:23:23.440Z,14.00
2022-09-12T01:24:23.426Z,14.04
2022-09-12T01:25:23.408Z,14.00
2022-09-12T01:26:23.367Z,14.03
2022-09-12T01:27:23.356Z,14.00
2022-09-12T01:28:23.329Z,14.13
2022-09-12T01:29:23.330Z,14.08
2022-09-12T01:30:23.292Z,14.11
2022-09-12T01:31:23.271Z,14.13
2022-09-12T01:32:23.291Z,14.19
2022-09-12T01:33:23.232Z,14.19
2022-09-12T01:34:23.232Z,14.16
2022-09-12T01:35:23.213Z,14.27
2022-09-12T01:36:23.171Z,14.31
2022-09-12T01:37:23.161Z,14.31
2022-09-12T01:38:23.133Z,14.28
2022-09-12T01:39:23.115Z,14.30
2022-09-12T01:40:23.112Z,14.38
2022-09-12T01:41:23.103Z,14.36
2022-09-12T01:42:23.056Z,14.40
2022-09-12T01:43:23.038Z,14.36
2022-09-12T01:44:23.038Z,14.37
2022-09-12T01:45:23.060Z,14.31
2022-09-12T01:46:22.977Z,14.31
2022-09-12T01:47:22.979Z,14.36
2022-09-12T01:48:22.940Z,14.41
2022-09-12T01:49:22.922Z,14.38
2022-09-12T01:50:22.904Z,14.48
2022-09-12T01:51:22.885Z,14.40
2022-09-12T01:52:22.884Z,14.48
2022-09-12T01:53:22.844Z,14.41
2022-09-12T01:54:22.825Z,14.45
2022-09-12T01:55:22.809Z,14.37
2022-09-12T01:56:22.787Z,14.52
2022-09-12T01:57:22.789Z,14.48
2022-09-12T01:58:22.749Z,14.48
2022-09-12T01:59:22.730Z,14.52
2022-09-12T02:00:22.706Z,14.48
2022-09-12T02:01:22.728Z,14.38
2022-09-12T02:02:22.697Z,14.40
2022-09-12T02:03:22.669Z,14.40
2022-09-12T02:04:22.635Z,14.37
2022-09-12T02:05:22.614Z,14.40
2022-09-12T02:06:22.592Z,14.45
2022-09-12T02:07:22.575Z,14.44
2022-09-12T02:08:22.570Z,14.34
2022-09-12T02:09:22.556Z,14.52
2022-09-12T02:10:22.510Z,14.49
2022-09-12T02:11:22.496Z,14.53
2022-09-12T02:12:22.473Z,14.55
2022-09-12T02:13:22.469Z,14.55
2022-09-12T02:14:22.433Z,14.56
2022-09-12T02:15:22.414Z,14.49
2022-09-12T02:16:22.446Z,14.48
2022-09-12T02:17:22.374Z,14.49
2022-09-12T02:18:22.377Z,14.41
2022-09-12T02:19:22.359Z,14.46
2022-09-12T02:20:44.447Z,14.40
2022-09-12T02:21:22.298Z,14.48
2022-09-12T02:22:22.286Z,14.49
2022-09-12T02:23:22.263Z,14.51
2022-09-12T02:24:22.263Z,14.49
2022-09-12T02:25:22.220Z,14.55
2022-09-12T02:26:22.225Z,14.52
2022-09-12T02:27:22.185Z,14.52
2022-09-12T02:28:22.171Z,14.56
2022-09-12T02:29:22.148Z,14.56
2022-09-12T02:30:22.209Z,14.45
2022-09-12T02:31:22.111Z,14.49
2022-09-12T02:32:22.094Z,14.53
2022-09-12T02:33:22.071Z,14.53
2022-09-12T02:34:22.069Z,14.53
2022-09-12T02:35:22.034Z,14.58
2022-09-12T02:36:22.028Z,14.53
2022-09-12T02:37:21.986Z,14.63
2022-09-12T02:38:22.030Z,14.61
2022-09-12T02:39:21.949Z,14.70
2022-09-12T02:40:21.959Z,14.71
2022-09-12T02:41:21.929Z,14.64
2022-09-12T02:42:21.902Z,14.63
2022-09-12T02:43:21.970Z,14.71
2022-09-12T02:44:21.858Z,14.59
2022-09-12T02:45:21.855Z,14.78
2022-09-12T02:46:21.814Z,14.74
2022-09-12T02:47:21.796Z,14.64
2022-09-12T02:48:21.778Z,14.71
2022-09-12T02:49:21.786Z,14.64
2022-09-12T02:50:21.747Z,14.74
2022-09-12T02:51:23.837Z,14.63
2022-09-12T02:52:21.726Z,14.61
2022-09-12T02:53:21.680Z,14.73
2022-09-12T02:54:21.660Z,14.71
2022-09-12T02:55:21.642Z,14.66
2022-09-12T02:56:21.644Z,14.74
2022-09-12T02:57:23.060Z,14.79
2022-09-12T02:58:21.585Z,14.74
2022-09-12T02:59:21.567Z,14.77
2022-09-12T03:00:21.540Z,14.73
2022-09-12T03:01:21.561Z,14.74
2022-09-12T03:02:21.556Z,14.78
2022-09-12T03:03:21.493Z,14.78
2022-09-12T03:04:21.475Z,14.78
2022-09-12T03:05:21.482Z,14.73
2022-09-12T03:06:21.425Z,14.77
2022-09-12T03:07:21.415Z,14.77
2022-09-12T03:08:21.398Z,14.74
2022-09-12T03:09:21.369Z,14.74
2022-09-12T03:10:21.373Z,14.78
2022-09-12T03:11:21.330Z,14.79
2022-09-12T03:12:21.308Z,14.71
2022-09-12T03:13:21.291Z,14.73
2022-09-12T03:14:21.276Z,14.69
2022-09-12T03:15:21.279Z,14.79
2022-09-12T03:16:21.270Z,14.71
2022-09-12T03:17:21.210Z,14.78
2022-09-12T03:18:21.194Z,14.78
2022-09-12T03:19:21.174Z,14.74
2022-09-12T03:20:21.160Z,14.83
2022-09-12T03:21:21.192Z,14.85
2022-09-12T03:22:21.137Z,14.83
2022-09-12T03:23:21.096Z,14.89
2022-09-12T03:24:21.081Z,14.71
2022-09-12T03:25:21.065Z,14.69
2022-09-12T03:26:21.057Z,14.78
2022-09-12T03:27:21.034Z,14.73
2022-09-12T03:28:21.001Z,14.71
2022-09-12T03:29:20.986Z,14.74
2022-09-12T03:30:20.997Z,14.74
2022-09-12T03:31:20.987Z,14.78
2022-09-12T03:32:20.927Z,14.73
2022-09-12T03:33:20.903Z,14.70
2022-09-12T03:34:20.884Z,14.77
2022-09-12T03:35:23.037Z,14.71
2022-09-12T03:36:20.849Z,14.73
2022-09-12T03:37:20.840Z,14.78
2022-09-12T03:38:20.809Z,14.71
2022-09-12T03:39:20.784Z,14.77
2022-09-12T03:40:20.768Z,14.69
2022-09-12T03:41:20.743Z,14.70
2022-09-12T03:42:20.766Z,14.73
2022-09-12T03:43:20.707Z,14.69
2022-09-12T03:44:20.690Z,14.74
2022-09-12T03:45:20.667Z,14.73
2022-09-12T03:46:20.653Z,14.78
2022-09-12T03:47:20.630Z,14.78
2022-09-12T03:48:20.623Z,14.70
2022-09-12T03:49:20.622Z,14.74
2022-09-12T03:50:20.569Z,14.78
2022-09-12T03:51:20.556Z,14.74
2022-09-12T03:52:20.535Z,14.79
2022-09-12T03:53:20.513Z,14.74
2022-09-12T03:54:20.510Z,14.70
2022-09-12T03:55:20.475Z,14.78
2022-09-12T03:56:20.457Z,14.73
2022-09-12T03:57:20.440Z,14.78
2022-09-12T03:58:20.442Z,14.79
2022-09-12T03:59:20.414Z,14.74
2022-09-12T04:00:20.387Z,14.69
2022-09-12T04:01:20.389Z,14.67
2022-09-12T04:02:20.368Z,14.69
2022-09-12T04:03:20.318Z,14.64
2022-09-12T04:04:20.318Z,14.58
2022-09-12T04:05:20.304Z,14.61
2022-09-12T04:06:20.259Z,14.61
2022-09-12T04:07:20.244Z,14.66
2022-09-12T04:08:20.219Z,14.67
2022-09-12T04:09:20.202Z,14.69
2022-09-12T04:10:20.206Z,14.58
2022-09-12T04:11:20.163Z,14.66
2022-09-12T04:12:20.159Z,14.67
2022-09-12T04:13:20.127Z,14.61
2022-09-12T04:14:20.099Z,14.55
2022-09-12T04:15:20.099Z,14.49
2022-09-12T04:16:20.107Z,14.61
2022-09-12T04:17:20.058Z,14.53
2022-09-12T04:18:20.029Z,14.56
2022-09-12T04:19:20.016Z,14.53
2022-09-12T04:20:19.993Z,14.59
2022-09-12T04:21:19.963Z,14.59
2022-09-12T04:22:19.971Z,14.56
2022-09-12T04:23:19.929Z,14.56
2022-09-12T04:24:19.909Z,14.63
2022-09-12T04:25:19.891Z,14.52
2022-09-12T04:26:19.869Z,14.55
2022-09-12T04:27:19.865Z,14.55
2022-09-12T04:28:19.834Z,14.51
2022-09-12T04:29:19.808Z,14.52
2022-09-12T04:30:19.793Z,14.58
2022-09-12T04:31:19.789Z,14.53
2022-09-12T04:32:19.766Z,14.49
2022-09-12T04:33:19.736Z,14.49
2022-09-12T04:34:19.712Z,14.56
2022-09-12T04:35:19.688Z,14.59
2022-09-12T04:36:19.695Z,14.46
2022-09-12T04:37:19.655Z,14.56
2022-09-12T04:38:19.634Z,14.49
2022-09-12T04:39:19.618Z,14.44
2022-09-12T04:40:19.598Z,14.56
2022-09-12T04:41:19.591Z,14.52
2022-09-12T04:42:19.568Z,14.56
2022-09-12T04:43:19.534Z,14.55
2022-09-12T04:44:19.520Z,14.49
2022-09-12T04:45:19.501Z,14.53
2022-09-12T04:46:19.495Z,14.46
2022-09-12T04:47:19.474Z,14.55
2022-09-12T04:48:19.435Z,14.48
2022-09-12T04:49:19.508Z,14.59
2022-09-12T04:50:19.411Z,14.41
2022-09-12T04:51:19.381Z,14.45
2022-09-12T04:52:19.359Z,14.44
2022-09-12T04:53:19.345Z,14.49
2022-09-12T04:54:19.426Z,14.52
2022-09-12T04:55:19.303Z,14.52
2022-09-12T04:56:19.287Z,14.53
2022-09-12T04:57:19.284Z,14.48
2022-09-12T04:58:19.274Z,14.44
2022-09-12T04:59:19.222Z,14.51
2022-09-12T05:00:19.199Z,14.46
2022-09-12T05:01:19.245Z,14.49
2022-09-12T05:02:19.231Z,14.40
2022-09-12T05:03:19.148Z,14.40
2022-09-12T05:04:19.132Z,14.51
2022-09-12T05:05:19.109Z,14.48
2022-09-12T05:06:19.084Z,14.51
2022-09-12T05:07:19.082Z,14.52
2022-09-12T05:08:19.043Z,14.53
2022-09-12T05:09:19.053Z,14.49
2022-09-12T05:10:19.004Z,14.46
2022-09-12T05:11:24.098Z,14.52
2022-09-12T05:12:18.966Z,14.52
2022-09-12T05:13:18.944Z,14.46
2022-09-12T05:14:18.925Z,14.55
2022-09-12T05:15:18.931Z,14.49
2022-09-12T05:16:19.001Z,14.49
2022-09-12T05:17:18.864Z,14.55
2022-09-12T05:18:18.854Z,14.56
2022-09-12T05:19:18.853Z,14.55
2022-09-12T05:20:18.809Z,14.58
2022-09-12T05:21:18.784Z,14.55
2022-09-12T05:22:18.773Z,14.52
2022-09-12T05:23:18.750Z,14.59
2022-09-12T05:24:18.727Z,14.58
2022-09-12T05:25:18.735Z,14.55
2022-09-12T05:26:18.716Z,14.53
2022-09-12T05:27:18.671Z,14.61
2022-09-12T05:28:18.659Z,14.61
2022-09-12T05:29:18.631Z,14.61
2022-09-12T05:30:18.633Z,14.52
2022-09-12T05:31:18.593Z,14.59
2022-09-12T05:32:18.575Z,14.66
2022-09-12T05:33:20.965Z,14.63
2022-09-12T05:34:18.546Z,14.69
2022-09-12T05:35:18.529Z,14.73
2022-09-12T05:36:18.501Z,14.78
2022-09-12T05:37:18.470Z,14.73
2022-09-12T05:38:18.454Z,14.69
2022-09-12T05:39:18.448Z,14.71
2022-09-12T05:40:18.415Z,14.82
2022-09-12T05:41:21.951Z,14.82
2022-09-12T05:42:18.377Z,14.86
2022-09-12T05:43:18.356Z,14.95
2022-09-12T05:44:18.354Z,14.93
2022-09-12T05:45:18.323Z,14.89
2022-09-12T05:46:18.295Z,14.95
2022-09-12T05:47:18.276Z,14.96
2022-09-12T05:48:18.264Z,14.95
2022-09-12T05:49:18.253Z,14.93
2022-09-12T05:50:18.220Z,14.96
2022-09-12T05:51:18.199Z,15.04
2022-09-12T05:52:18.184Z,15.07
2022-09-12T05:53:18.157Z,15.03
2022-09-12T05:54:18.164Z,15.08
2022-09-12T05:55:18.120Z,15.04
2022-09-12T05:56:18.123Z,15.05
2022-09-12T05:57:18.104Z,14.99
2022-09-12T05:58:18.067Z,15.03
2022-09-12T05:59:18.046Z,14.99
2022-09-12T06:00:18.054Z,15.10
2022-09-12T06:01:18.149Z,15.15
2022-09-12T06:02:18.019Z,15.04
2022-09-12T06:03:17.972Z,15.19
2022-09-12T06:04:17.950Z,15.14
2022-09-12T06:05:17.929Z,15.20
2022-09-12T06:06:17.919Z,15.11
2022-09-12T06:07:17.913Z,15.10
2022-09-12T06:08:17.875Z,15.23
2022-09-12T06:09:17.858Z,15.19
2022-09-12T06:10:17.832Z,15.19
2022-09-12T06:11:17.813Z,15.25
2022-09-12T06:12:17.811Z,15.20
2022-09-12T06:13:17.770Z,15.20
2022-09-12T06:14:17.806Z,15.29
2022-09-12T06:15:17.734Z,15.29
2022-09-12T06:16:17.766Z,15.26
2022-09-12T06:17:18.651Z,15.25
2022-09-12T06:18:17.674Z,15.27
2022-09-12T06:19:17.667Z,15.26
2022-09-12T06:20:17.660Z,15.32
2022-09-12T06:21:17.629Z,15.38
2022-09-12T06:22:17.616Z,15.38
2022-09-12T06:23:17.583Z,15.40
2022-09-12T06:24:17.599Z,15.38
2022-09-12T06:25:17.557Z,15.48
2022-09-12T06:26:17.520Z,15.44
2022-09-12T06:27:17.506Z,15.38
2022-09-12T06:28:17.487Z,15.51
2022-09-12T06:29:17.477Z,15.58
2022-09-12T06:30:17.485Z,15.56
2022-09-12T06:31:17.431Z,15.60
2022-09-12T06:32:17.408Z,15.62
2022-09-12T06:33:17.401Z,15.63
2022-09-12T06:34:17.371Z,15.63
2022-09-12T06:35:17.370Z,15.69
2022-09-12T06:36:17.328Z,15.70
2022-09-12T06:37:17.312Z,15.88
2022-09-12T06:38:17.304Z,15.78
2022-09-12T06:39:17.308Z,15.87
2022-09-12T06:40:17.345Z,15.83
2022-09-12T06:41:17.247Z,15.96
2022-09-12T06:42:17.238Z,15.99
2022-09-12T06:43:17.214Z,15.93
2022-09-12T06:44:17.183Z,16.06
2022-09-12T06:45:17.183Z,16.03
2022-09-12T06:47:59.124Z,16.21
2022-09-12T06:48:59.088Z,16.21
2022-09-12T06:49:59.065Z,16.24
2022-09-12T06:50:59.044Z,16.26
2022-09-12T06:51:59.026Z,16.26
2022-09-12T06:52:59.028Z,16.28
2022-09-12T06:53:58.987Z,16.32
2022-09-12T06:54:58.973Z,16.37
2022-09-12T06:55:58.979Z,16.28
2022-09-12T06:56:58.955Z,16.32
2022-09-12T06:57:58.933Z,16.34
2022-09-12T06:58:58.908Z,16.36
2022-09-12T06:59:58.876Z,16.37
2022-09-12T07:00:59.193Z,16.40
2022-09-12T07:01:58.950Z,16.36
2022-09-12T07:02:58.819Z,16.46
2022-09-12T07:03:58.824Z,16.49
2022-09-12T07:04:58.785Z,16.44
2022-09-12T07:05:58.759Z,16.51
2022-09-12T07:06:58.746Z,16.52
2022-09-12T07:07:58.724Z,16.58
2022-09-12T07:08:58.723Z,16.55
2022-09-12T07:09:58.687Z,16.61
2022-09-12T07:10:58.671Z,16.70
2022-09-12T07:11:58.666Z,16.64
2022-09-12T07:12:58.635Z,16.67
2022-09-12T07:13:58.705Z,16.65
2022-09-12T07:14:58.792Z,16.69
2022-09-12T07:15:58.574Z,16.55
2022-09-12T07:16:58.583Z,16.62
2022-09-12T07:17:58.538Z,16.62
2022-09-12T07:18:58.521Z,16.65
2022-09-12T07:19:58.525Z,16.61
2022-09-12T07:20:58.485Z,16.62
2022-09-12T07:21:58.866Z,16.57
2022-09-12T07:22:58.440Z,16.58
2022-09-12T07:23:58.434Z,16.64
2022-09-12T07:24:58.423Z,16.70
2022-09-12T07:25:58.387Z,16.67
2022-09-12T07:26:58.470Z,16.72
2022-09-12T07:27:58.349Z,16.77
2022-09-12T07:29:18.670Z,16.76
2022-09-12T07:29:58.343Z,16.76
2022-09-12T07:30:58.316Z,16.76
2022-09-12T07:31:58.283Z,16.83
2022-09-12T07:32:58.255Z,16.83
2022-09-12T07:33:58.241Z,16.88
2022-09-12T07:34:58.222Z,16.94
2022-09-12T07:35:58.225Z,16.94
2022-09-12T07:36:58.185Z,16.90
2022-09-12T07:37:58.174Z,16.99
2022-09-12T07:38:58.148Z,16.98
2022-09-12T07:39:58.207Z,17.02
2022-09-12T07:40:58.110Z,17.17
2022-09-12T07:41:58.110Z,16.99
2022-09-12T07:42:58.084Z,17.06
2022-09-12T07:43:58.068Z,17.01
2022-09-12T07:44:58.035Z,17.02
2022-09-12T07:45:58.064Z,17.10
2022-09-12T07:46:57.996Z,17.09
2022-09-12T07:47:57.995Z,17.17
2022-09-12T07:48:58.045Z,17.22
2022-09-12T07:49:58.015Z,17.20
2022-09-12T07:50:57.942Z,17.07
2022-09-12T07:51:57.943Z,17.17
2022-09-12T07:52:57.882Z,17.19
2022-09-12T07:53:57.863Z,17.20
2022-09-12T07:54:57.852Z,17.28
2022-09-12T07:55:57.831Z,17.19
2022-09-12T07:56:57.842Z,17.25
2022-09-12T07:57:58.279Z,17.27
2022-09-12T07:58:57.776Z,17.20
2022-09-12T07:59:57.810Z,17.25
2022-09-12T08:00:57.739Z,17.19
2022-09-12T08:01:57.724Z,17.22
2022-09-12T08:02:57.751Z,17.27
2022-09-12T08:03:58.302Z,17.28
2022-09-12T08:04:57.689Z,17.37
2022-09-12T08:05:57.653Z,17.35
2022-09-12T08:06:57.647Z,17.41
2022-09-12T08:07:57.907Z,17.43
2022-09-12T08:08:57.605Z,17.46
2022-09-12T08:09:57.594Z,17.47
2022-09-12T08:10:57.571Z,17.47
2022-09-12T08:11:57.546Z,17.52
2022-09-12T08:12:57.522Z,17.59
2022-09-12T08:13:57.811Z,17.59
2022-09-12T08:14:57.517Z,17.56
2022-09-12T08:15:57.533Z,17.68
2022-09-12T08:16:57.457Z,17.62
2022-09-12T08:17:57.431Z,17.68
2022-09-12T08:18:57.418Z,17.83
2022-09-12T08:19:57.402Z,17.79
2022-09-12T08:20:57.383Z,17.93
2022-09-12T08:21:57.352Z,17.91
2022-09-12T08:22:57.358Z,18.05
2022-09-12T08:23:57.319Z,18.06
2022-09-12T08:24:57.299Z,18.06
2022-09-12T08:25:57.283Z,18.08
2022-09-12T08:26:57.262Z,18.09
2022-09-12T08:27:57.270Z,18.17
2022-09-12T08:28:57.224Z,18.20
2022-09-12T08:29:57.213Z,18.18
2022-09-12T08:30:57.231Z,18.24
2022-09-12T08:31:57.522Z,18.38
2022-09-12T08:32:57.179Z,18.36
2022-09-12T08:33:57.130Z,18.39
2022-09-12T08:34:57.116Z,18.46
2022-09-12T08:35:57.109Z,18.41
2022-09-12T08:36:57.079Z,18.39
2022-09-12T08:37:57.082Z,18.48
2022-09-12T08:38:59.607Z,18.56
2022-09-12T08:39:57.161Z,18.74
2022-09-12T08:40:57.030Z,18.86
2022-09-12T08:41:57.076Z,18.86
2022-09-12T08:42:56.972Z,18.88
2022-09-12T08:43:57.224Z,19.05
2022-09-12T08:44:56.934Z,19.26
2022-09-12T08:45:56.998Z,19.31
2022-09-12T08:46:56.902Z,19.53
2022-09-12T08:47:56.882Z,19.52
2022-09-12T08:48:56.888Z,19.62
2022-09-12T08:49:56.853Z,19.75
2022-09-12T08:50:56.825Z,19.79
2022-09-12T08:51:56.838Z,19.67
2022-09-12T08:52:56.793Z,19.75
2022-09-12T08:53:56.812Z,19.84
2022-09-12T08:54:56.758Z,19.90
2022-09-12T08:55:56.742Z,19.75
2022-09-12T08:56:56.725Z,19.81
2022-09-12T08:57:56.721Z,20.00
2022-09-12T08:58:56.688Z,20.04
2022-09-12T08:59:56.672Z,20.08
2022-09-12T09:00:56.654Z,20.05
2022-09-12T09:01:56.659Z,20.07
2022-09-12T09:02:56.713Z,20.18
2022-09-12T09:03:56.614Z,20.07
2022-09-12T09:06:38.664Z,19.97
2022-09-12T09:07:38.631Z,20.00
2022-09-12T09:08:38.634Z,20.07
2022-09-12T09:09:38.614Z,19.97
2022-09-12T09:10:38.579Z,20.02
2022-09-12T09:11:38.559Z,20.00
2022-09-12T09:12:38.541Z,20.18
2022-09-12T09:13:38.527Z,20.17
2022-09-12T09:14:38.525Z,20.18
2022-09-12T09:15:38.522Z,20.34
2022-09-12T09:16:38.480Z,20.33
2022-09-12T09:17:38.493Z,20.50
2022-09-12T09:18:38.441Z,20.77
2022-09-12T09:19:38.446Z,21.08
2022-09-12T09:20:38.419Z,21.26
2022-09-12T09:21:38.390Z,21.38
2022-09-12T09:22:38.377Z,21.51
2022-09-12T09:23:38.358Z,21.55
2022-09-12T09:24:38.367Z,21.74
2022-09-12T09:25:38.367Z,21.74
2022-09-12T09:26:38.310Z,22.06
2022-09-12T09:27:41.275Z,22.28
2022-09-12T09:28:38.290Z,22.53
2022-09-12T09:29:38.268Z,22.76
2022-09-12T09:30:38.339Z,23.25
2022-09-12T09:31:38.226Z,23.61
2022-09-12T09:32:38.216Z,23.63
2022-09-12T09:33:38.195Z,23.78
2022-09-12T09:34:38.185Z,23.88
2022-09-12T09:35:38.190Z,24.19
2022-09-12T09:36:38.158Z,24.04
2022-09-12T09:37:38.134Z,23.26
2022-09-12T09:38:38.133Z,23.36
2022-09-12T09:39:38.184Z,23.78
2022-09-12T09:40:38.107Z,24.03
2022-09-12T09:41:38.093Z,23.81
2022-09-12T09:42:38.054Z,23.78
2022-09-12T09:43:38.038Z,23.71
2022-09-12T09:44:38.023Z,24.13
2022-09-12T09:45:38.009Z,24.70
2022-09-12T09:46:38.084Z,24.97
2022-09-12T09:47:37.982Z,24.86
2022-09-12T09:48:37.974Z,24.97
2022-09-12T09:49:37.958Z,24.60
2022-09-12T09:50:37.962Z,24.18
2022-09-12T09:51:37.926Z,24.40
2022-09-12T09:52:37.914Z,24.60
2022-09-12T09:53:37.894Z,24.34
2022-09-12T09:54:37.888Z,24.55
2022-09-12T09:55:37.900Z,25.01
2022-09-12T09:56:37.877Z,25.53
2022-09-12T09:57:37.846Z,25.89
2022-09-12T09:58:37.838Z,25.55
2022-09-12T09:59:37.815Z,25.59
2022-09-12T10:00:37.828Z,26.04
2022-09-12T10:01:37.849Z,26.12
2022-09-12T10:02:37.832Z,26.61
2022-09-12T10:03:37.769Z,26.93
2022-09-12T10:04:41.235Z,27.16
2022-09-12T10:05:37.763Z,27.47
2022-09-12T10:06:37.744Z,27.04
2022-09-12T10:07:37.751Z,26.00
2022-09-12T10:08:37.713Z,26.27
2022-09-12T10:09:37.703Z,26.76
2022-09-12T10:10:37.689Z,27.08
2022-09-12T10:11:37.677Z,27.69
2022-09-12T10:12:37.683Z,27.17
2022-09-12T10:13:37.654Z,26.58
2022-09-12T10:14:37.644Z,25.88
2022-09-12T10:15:37.658Z,25.75
2022-09-12T10:16:37.619Z,26.48
2022-09-12T10:17:37.629Z,26.80
2022-09-12T10:18:37.600Z,27.08
2022-09-12T10:19:37.606Z,27.40
2022-09-12T10:20:37.592Z,27.64
2022-09-12T10:21:40.978Z,27.34
2022-09-12T10:22:37.550Z,27.26
2022-09-12T10:23:37.552Z,27.25
2022-09-12T10:24:37.530Z,27.49
2022-09-12T10:25:37.555Z,27.68
2022-09-12T10:26:37.523Z,27.82
2022-09-12T10:27:37.501Z,27.87
2022-09-12T10:28:37.492Z,27.70
2022-09-12T10:29:37.498Z,27.22
2022-09-12T10:30:37.479Z,26.27
2022-09-12T10:31:37.460Z,25.92
2022-09-12T10:32:37.455Z,26.10
2022-09-12T10:33:37.440Z,26.19
2022-09-12T10:34:37.427Z,25.78
2022-09-12T10:35:37.432Z,25.40
2022-09-12T10:36:37.408Z,25.51
2022-09-12T10:37:37.403Z,25.73
2022-09-12T10:38:37.387Z,26.05
2022-09-12T10:39:37.558Z,26.65
2022-09-12T10:40:37.367Z,27.15
2022-09-12T10:41:37.378Z,27.27
2022-09-12T10:42:37.356Z,27.26
2022-09-12T10:43:37.356Z,27.34
2022-09-12T10:44:37.329Z,27.26
2022-09-12T10:45:37.339Z,27.40
2022-09-12T10:46:37.336Z,27.57
2022-09-12T10:47:37.299Z,27.40
2022-09-12T10:48:37.291Z,26.58
2022-09-12T10:49:37.286Z,25.96
2022-09-12T10:50:37.285Z,25.36
2022-09-12T10:51:37.260Z,25.33
2022-09-12T10:52:37.270Z,25.40
2022-09-12T10:53:37.244Z,25.34
2022-09-12T10:54:37.241Z,25.61
2022-09-12T10:55:37.228Z,26.04
2022-09-12T10:56:37.213Z,26.64
2022-09-12T10:57:37.218Z,26.78
2022-09-12T10:58:37.197Z,27.00
2022-09-12T10:59:37.179Z,27.07
2022-09-12T11:00:37.176Z,26.65
2022-09-12T11:01:37.223Z,26.28
2022-09-12T11:02:37.220Z,26.61
2022-09-12T11:03:37.165Z,26.68
2022-09-12T11:04:37.135Z,26.68
2022-09-12T11:05:37.135Z,26.34
2022-09-12T11:06:37.120Z,26.19
2022-09-12T11:07:37.109Z,26.28
2022-09-12T11:08:37.119Z,26.51
2022-09-12T11:09:37.110Z,26.85
2022-09-12T11:10:40.461Z,26.48
2022-09-12T11:11:37.153Z,26.11
2022-09-12T11:12:37.063Z,25.89
2022-09-12T11:13:37.105Z,26.27
2022-09-12T11:14:37.066Z,26.34
2022-09-12T11:15:37.071Z,25.90
2022-09-12T11:16:37.022Z,25.86
2022-09-12T11:17:37.011Z,26.21
2022-09-12T11:18:37.008Z,26.63
2022-09-12T11:19:37.012Z,26.93
2022-09-12T11:20:36.980Z,27.22
2022-09-12T11:21:36.975Z,26.94
2022-09-12T11:22:36.962Z,26.67
2022-09-12T11:23:36.951Z,26.36
2022-09-12T11:24:36.943Z,26.16
2022-09-12T11:25:36.974Z,25.81
2022-09-12T11:26:36.929Z,26.15
2022-09-12T11:27:36.921Z,26.63
2022-09-12T11:28:36.905Z,27.22
2022-09-12T11:29:36.892Z,27.64
2022-09-12T11:30:36.908Z,28.12
2022-09-12T11:31:36.892Z,28.53
2022-09-12T11:32:36.866Z,28.72
2022-09-12T11:33:40.855Z,28.81
2022-09-12T11:34:36.845Z,29.02
2022-09-12T11:35:36.859Z,29.24
2022-09-12T11:36:36.831Z,29.17
2022-09-12T11:37:36.846Z,29.18
2022-09-12T11:38:36.802Z,29.17
2022-09-12T11:41:18.731Z,29.04
2022-09-12T11:42:18.722Z,28.05
2022-09-12T11:43:18.692Z,28.17
2022-09-12T11:44:18.683Z,27.72
2022-09-12T11:45:18.680Z,27.70
2022-09-12T11:46:18.681Z,27.66
2022-09-12T11:47:18.657Z,27.76
2022-09-12T11:48:18.658Z,27.80
2022-09-12T11:49:18.643Z,28.07
2022-09-12T11:50:18.626Z,28.09
2022-09-12T11:51:18.617Z,27.35
2022-09-12T11:52:18.603Z,27.04
2022-09-12T11:53:18.593Z,27.31
2022-09-12T11:54:18.594Z,27.60
2022-09-12T11:55:18.573Z,27.83
2022-09-12T11:56:18.554Z,28.05
2022-09-12T11:57:18.551Z,28.28
2022-09-12T11:58:18.540Z,28.46
2022-09-12T11:59:18.555Z,28.61
2022-09-12T12:00:18.527Z,28.30
2022-09-12T12:01:18.511Z,28.24
2022-09-12T12:02:18.528Z,28.25
2022-09-12T12:03:18.518Z,28.12
2022-09-12T12:04:18.470Z,28.10
2022-09-12T12:05:18.494Z,28.06
2022-09-12T12:06:18.453Z,28.15
2022-09-12T12:07:18.455Z,27.68
2022-09-12T12:08:18.436Z,27.34
2022-09-12T12:09:18.425Z,27.19
2022-09-12T12:10:18.434Z,27.42
2022-09-12T12:11:18.422Z,27.75
2022-09-12T12:12:18.386Z,27.75
2022-09-12T12:13:18.383Z,27.83
2022-09-12T12:14:18.389Z,28.03
2022-09-12T12:15:18.370Z,28.42
2022-09-12T12:16:18.390Z,28.87
2022-09-12T12:17:18.344Z,29.24
2022-09-12T12:18:18.325Z,29.36
2022-09-12T12:19:18.314Z,29.02
2022-09-12T12:20:18.307Z,28.64
2022-09-12T12:21:18.293Z,28.20
2022-09-12T12:22:18.296Z,27.73
2022-09-12T12:23:18.283Z,27.68
2022-09-12T12:24:18.261Z,27.50
2022-09-12T12:25:21.580Z,27.47
2022-09-12T12:26:18.242Z,27.94
2022-09-12T12:27:18.254Z,28.31
2022-09-12T12:28:18.219Z,28.56
2022-09-12T12:29:18.217Z,28.94
2022-09-12T12:30:18.196Z,29.17
2022-09-12T12:31:18.369Z,29.22
2022-09-12T12:32:18.178Z,29.19
2022-09-12T12:33:18.186Z,29.37
2022-09-12T12:34:18.158Z,28.98
2022-09-12T12:35:18.155Z,28.74
2022-09-12T12:36:18.140Z,28.50
2022-09-12T12:37:18.136Z,28.27
2022-09-12T12:38:18.141Z,28.35
2022-09-12T12:39:18.119Z,28.42
2022-09-12T12:40:18.143Z,28.30
2022-09-12T12:41:18.073Z,28.27
2022-09-12T12:42:20.093Z,28.49
2022-09-12T12:43:18.065Z,28.74
2022-09-12T12:44:18.061Z,29.02
2022-09-12T12:45:18.033Z,29.07
2022-09-12T12:46:18.080Z,29.15
2022-09-12T12:47:18.017Z,29.24
2022-09-12T12:48:18.012Z,29.04
2022-09-12T12:49:18.020Z,29.06
2022-09-12T12:50:17.972Z,29.09
2022-09-12T12:51:17.974Z,29.15
2022-09-12T12:52:17.952Z,29.15
2022-09-12T12:53:17.940Z,29.28
2022-09-12T12:54:17.951Z,29.33
2022-09-12T12:55:17.922Z,29.34
2022-09-12T12:56:17.905Z,29.50
2022-09-12T12:57:17.896Z,29.54